createdAt,value
2019-05-09T00:02:04.651Z,90.68
2019-05-09T00:04:34.068Z,90.74
2019-05-09T00:07:03.728Z,90.60
2019-05-09T00:09:33.646Z,90.81
2019-05-09T00:12:03.874Z,90.41
2019-05-09T00:14:34.246Z,90.55
2019-05-09T00:17:03.981Z,90.27
2019-05-09T00:19:33.537Z,90.33
2019-05-09T00:22:03.398Z,90.09
2019-05-09T00:24:33.282Z,90.08
2019-05-09T00:27:03.886Z,90.21
2019-05-09T00:29:37.570Z,90.17
2019-05-09T00:32:13.581Z,90.37
2019-05-09T00:35:00.672Z,90.43
2019-05-09T00:37:47.762Z,90.31
2019-05-09T00:40:17.189Z,90.34
2019-05-09T00:42:46.594Z,90.47
2019-05-09T00:48:04.504Z,90.39
2019-05-09T00:50:34.272Z,90.42
2019-05-09T00:53:03.746Z,90.23
2019-05-09T00:55:34.709Z,90.13
2019-05-09T00:58:05.629Z,90.36
2019-05-09T01:00:39.329Z,90.30
2019-05-09T01:03:08.729Z,90.31
2019-05-09T01:05:38.175Z,90.46
2019-05-09T01:08:07.730Z,90.57
2019-05-09T01:10:37.181Z,90.53
2019-05-09T01:13:06.649Z,90.63
2019-05-09T01:15:36.151Z,90.69
2019-05-09T01:18:05.553Z,90.42
2019-05-09T01:20:35.039Z,90.25
2019-05-09T01:23:04.583Z,90.45
2019-05-09T01:25:34.169Z,90.44
2019-05-09T01:28:03.606Z,90.38
2019-05-09T01:30:33.679Z,90.37
2019-05-09T01:33:10.447Z,90.58
2019-05-09T01:35:40.050Z,90.75
2019-05-09T01:38:09.579Z,90.86
2019-05-09T01:40:39.472Z,91.04
2019-05-09T01:43:10.379Z,91.07
2019-05-09T01:45:39.880Z,91.01
2019-05-09T01:48:09.482Z,90.77
2019-05-09T01:50:38.920Z,91.19
2019-05-09T01:53:08.560Z,91.07
2019-05-09T01:55:55.813Z,91.14
2019-05-09T01:58:25.528Z,91.23
2019-05-09T02:00:56.757Z,91.35
2019-05-09T02:03:26.683Z,91.40
2019-05-09T02:05:56.272Z,91.33
2019-05-09T02:08:27.372Z,91.75
2019-05-09T02:10:57.249Z,91.95
2019-05-09T02:13:26.696Z,91.73
2019-05-09T02:16:14.265Z,91.91
2019-05-09T02:18:48.574Z,91.77
2019-05-09T02:21:18.105Z,91.43
2019-05-09T02:23:47.549Z,91.36
2019-05-09T02:26:16.980Z,91.34
2019-05-09T02:28:48.057Z,91.34
2019-05-09T02:31:17.491Z,91.12
2019-05-09T02:33:47.068Z,91.32
2019-05-09T02:36:18.988Z,91.38
2019-05-09T02:38:48.719Z,91.42
2019-05-09T02:41:19.648Z,91.41
2019-05-09T02:43:49.933Z,91.33
2019-05-09T02:46:33.961Z,91.14
2019-05-09T02:49:03.520Z,91.13
2019-05-09T02:51:33.069Z,91.42
2019-05-09T02:54:04.321Z,91.44
2019-05-09T02:56:33.778Z,91.38
2019-05-09T02:59:23.103Z,91.63
2019-05-09T03:01:54.439Z,91.63
2019-05-09T03:04:23.936Z,91.96
2019-05-09T03:06:53.526Z,92.02
2019-05-09T03:09:24.405Z,92.16
2019-05-09T03:11:53.908Z,91.92
2019-05-09T03:14:23.407Z,92.06
2019-05-09T03:16:52.831Z,92.20
2019-05-09T03:19:22.627Z,92.17
2019-05-09T03:21:58.509Z,92.04
2019-05-09T03:24:28.839Z,92.05
2019-05-09T03:27:03.130Z,91.93
2019-05-09T03:29:39.614Z,92.01
2019-05-09T03:32:09.410Z,92.06
2019-05-09T03:34:39.109Z,91.93
2019-05-09T03:37:08.821Z,91.97
2019-05-09T03:39:38.251Z,91.92
2019-05-09T03:42:08.000Z,92.33
2019-05-09T03:44:38.536Z,92.15
2019-05-09T03:47:12.681Z,92.19
2019-05-09T03:49:42.124Z,92.18
2019-05-09T03:52:11.994Z,92.02
2019-05-09T03:54:41.427Z,92.00
2019-05-09T03:57:12.471Z,92.05
2019-05-09T03:59:42.083Z,91.85
2019-05-09T04:02:11.478Z,91.84
2019-05-09T04:04:40.905Z,92.02
2019-05-09T04:07:10.328Z,92.13
2019-05-09T04:09:39.937Z,92.14
2019-05-09T04:12:09.464Z,91.98
2019-05-09T04:14:39.842Z,91.99
2019-05-09T04:17:11.745Z,92.05
2019-05-09T04:19:41.149Z,92.20
2019-05-09T04:22:10.648Z,92.08
2019-05-09T04:24:40.256Z,92.05
2019-05-09T04:27:23.108Z,91.52
2019-05-09T04:29:52.537Z,91.31
2019-05-09T04:32:22.338Z,91.37
2019-05-09T04:34:51.785Z,91.33
2019-05-09T04:37:21.213Z,90.88
2019-05-09T04:39:54.082Z,90.85
2019-05-09T04:42:22.774Z,90.85
2019-05-09T04:45:03.374Z,90.67
2019-05-09T04:47:33.738Z,90.56
2019-05-09T04:50:02.324Z,90.40
2019-05-09T04:52:31.762Z,90.32
2019-05-09T04:55:01.221Z,90.35
2019-05-09T04:57:30.658Z,89.92
2019-05-09T05:00:00.067Z,89.67
2019-05-09T05:02:31.134Z,89.55
2019-05-09T05:05:00.533Z,89.58
2019-05-09T05:07:30.115Z,89.69
2019-05-09T05:09:59.512Z,89.10
2019-05-09T05:12:28.932Z,89.14
2019-05-09T05:14:58.528Z,89.07
2019-05-09T05:17:30.620Z,89.00
2019-05-09T05:20:00.234Z,88.96
2019-05-09T05:22:38.694Z,88.98
2019-05-09T05:25:09.298Z,88.74
2019-05-09T05:27:38.892Z,88.64
2019-05-09T05:30:08.970Z,88.98
2019-05-09T05:32:42.767Z,88.65
2019-05-09T05:35:29.279Z,88.61
2019-05-09T05:37:58.780Z,88.01
2019-05-09T05:40:33.255Z,87.86
2019-05-09T05:42:59.599Z,87.50
2019-05-09T05:45:30.648Z,87.36
2019-05-09T05:48:04.428Z,86.77
2019-05-09T05:50:34.268Z,85.93
2019-05-09T05:53:03.717Z,85.55
2019-05-09T05:55:33.124Z,85.55
2019-05-09T05:58:02.606Z,84.44
2019-05-09T06:00:32.040Z,84.80
2019-05-09T06:03:01.480Z,84.17
2019-05-09T06:05:30.893Z,84.02
2019-05-09T06:08:00.399Z,83.44
2019-05-09T06:10:29.883Z,83.86
2019-05-09T06:12:59.310Z,84.21
2019-05-09T06:15:29.006Z,83.50
2019-05-09T06:17:58.559Z,83.50
2019-05-09T06:20:28.290Z,84.26
2019-05-09T06:22:58.406Z,84.68
2019-05-09T06:25:30.536Z,84.36
2019-05-09T06:27:59.051Z,84.53
2019-05-09T06:30:32.116Z,83.93
2019-05-09T06:33:04.945Z,84.39
2019-05-09T06:35:32.864Z,83.52
2019-05-09T06:38:02.590Z,83.99
2019-05-09T06:40:32.022Z,83.54
2019-05-09T06:43:03.160Z,83.52
2019-05-09T06:45:34.295Z,83.24
2019-05-09T06:48:03.889Z,83.23
2019-05-09T06:50:34.821Z,82.69
2019-05-09T06:53:04.386Z,82.68
2019-05-09T06:55:35.370Z,81.98
2019-05-09T06:58:23.014Z,81.19
2019-05-09T07:00:58.539Z,80.06
2019-05-09T07:03:30.170Z,79.87
2019-05-09T07:06:01.262Z,78.25
2019-05-09T07:08:47.844Z,76.48
2019-05-09T07:11:19.167Z,74.73
2019-05-09T07:13:48.735Z,71.10
2019-05-09T07:16:18.824Z,67.32
2019-05-09T07:18:48.587Z,66.47
2019-05-09T07:21:19.108Z,65.75
2019-05-09T07:23:48.552Z,65.33
2019-05-09T07:26:23.601Z,64.14
2019-05-09T07:28:52.991Z,61.50
2019-05-09T07:31:28.530Z,61.20
2019-05-09T07:33:59.613Z,61.07
2019-05-09T07:36:29.735Z,59.17
2019-05-09T07:38:59.303Z,59.17
2019-05-09T07:41:29.874Z,58.51
2019-05-09T07:43:59.350Z,58.51
2019-05-09T07:46:30.355Z,57.39
2019-05-09T07:49:00.365Z,57.47
2019-05-09T07:51:29.869Z,54.80
2019-05-09T07:53:59.410Z,55.56
2019-05-09T07:56:29.311Z,55.21
2019-05-09T07:58:58.756Z,55.68
2019-05-09T08:01:28.348Z,55.12
2019-05-09T08:03:58.569Z,54.16
2019-05-09T08:06:28.970Z,53.91
2019-05-09T08:08:58.575Z,55.33
2019-05-09T08:11:29.486Z,54.11
2019-05-09T08:13:59.054Z,55.09
2019-05-09T08:16:28.472Z,55.73
2019-05-09T08:18:58.063Z,52.80
2019-05-09T08:21:27.924Z,52.99
2019-05-09T08:23:58.030Z,50.90
2019-05-09T08:26:29.995Z,50.42
2019-05-09T08:28:59.030Z,50.79
2019-05-09T08:31:28.529Z,50.65
2019-05-09T08:33:59.252Z,50.17
2019-05-09T08:36:29.094Z,48.76
2019-05-09T08:39:00.161Z,49.77
2019-05-09T08:41:31.226Z,48.16
2019-05-09T08:44:00.700Z,51.43
2019-05-09T08:46:31.657Z,48.90
2019-05-09T08:49:01.051Z,46.81
2019-05-09T08:51:47.241Z,47.12
2019-05-09T08:54:09.137Z,43.73
2019-05-09T08:56:38.831Z,45.64
2019-05-09T08:59:08.754Z,43.75
2019-05-09T09:02:04.911Z,44.62
2019-05-09T09:04:11.092Z,45.81
2019-05-09T09:06:40.705Z,44.40
2019-05-09T09:09:10.099Z,43.85
2019-05-09T09:11:39.509Z,42.87
2019-05-09T09:14:08.907Z,43.20
2019-05-09T09:16:41.509Z,43.19
2019-05-09T09:19:09.468Z,43.29
2019-05-09T09:21:39.013Z,43.66
2019-05-09T09:24:08.863Z,43.73
2019-05-09T09:26:38.476Z,43.08
2019-05-09T09:29:08.599Z,42.78
2019-05-09T09:31:38.167Z,41.76
2019-05-09T09:34:08.046Z,41.93
2019-05-09T09:36:39.056Z,40.60
2019-05-09T09:39:08.754Z,41.80
2019-05-09T09:41:38.896Z,40.77
2019-05-09T09:44:08.993Z,42.91
2019-05-09T09:46:38.687Z,41.10
2019-05-09T09:49:08.562Z,40.20
2019-05-09T09:51:38.467Z,43.43
2019-05-09T09:54:08.731Z,40.17
2019-05-09T09:56:38.914Z,40.29
2019-05-09T09:59:28.396Z,38.53
2019-05-09T10:02:10.265Z,38.52
2019-05-09T10:04:38.339Z,39.02
2019-05-09T10:07:08.929Z,37.00
2019-05-09T10:09:38.513Z,37.11
2019-05-09T10:12:09.043Z,36.20
2019-05-09T10:14:46.208Z,39.00
2019-05-09T10:17:33.786Z,36.09
2019-05-09T10:20:05.609Z,35.18
2019-05-09T10:22:35.053Z,37.17
2019-05-09T10:25:07.846Z,34.72
2019-05-09T10:27:38.738Z,35.49
2019-05-09T10:30:09.647Z,37.04
2019-05-09T10:32:39.209Z,38.09
2019-05-09T10:35:08.916Z,36.96
2019-05-09T10:37:39.451Z,34.96
2019-05-09T10:40:10.644Z,36.78
2019-05-09T10:42:41.715Z,37.82
2019-05-09T10:45:31.195Z,36.59
2019-05-09T10:48:00.696Z,38.80
2019-05-09T10:50:34.025Z,38.32
2019-05-09T10:53:01.346Z,37.05
2019-05-09T10:55:30.739Z,38.32
2019-05-09T10:58:02.225Z,36.93
2019-05-09T11:00:31.555Z,38.04
2019-05-09T11:03:01.037Z,38.70
2019-05-09T11:05:30.443Z,39.23
2019-05-09T11:08:01.580Z,39.13
2019-05-09T11:10:32.848Z,36.32
2019-05-09T11:13:02.117Z,37.47
2019-05-09T11:15:34.352Z,36.02
2019-05-09T11:18:03.858Z,36.10
2019-05-09T11:20:33.495Z,34.68
2019-05-09T11:23:02.921Z,35.63
2019-05-09T11:25:32.620Z,37.22
2019-05-09T11:28:10.878Z,40.01
2019-05-09T11:30:33.500Z,40.51
2019-05-09T11:33:02.947Z,36.97
2019-05-09T11:35:32.342Z,34.61
2019-05-09T11:38:01.776Z,36.56
2019-05-09T11:40:31.340Z,37.05
2019-05-09T11:43:00.850Z,35.13
2019-05-09T11:45:30.304Z,35.07
2019-05-09T11:47:59.809Z,36.22
2019-05-09T11:50:29.202Z,36.16
2019-05-09T11:52:59.973Z,35.92
2019-05-09T11:55:35.670Z,35.60
2019-05-09T11:58:00.735Z,36.39
2019-05-09T12:00:30.137Z,36.64
2019-05-09T12:02:59.633Z,35.57
2019-05-09T12:05:29.047Z,33.44
2019-05-09T12:07:58.511Z,33.17
2019-05-09T12:10:28.539Z,35.29
2019-05-09T12:12:58.498Z,38.74
2019-05-09T12:15:29.050Z,40.28
2019-05-09T12:18:04.043Z,40.66
2019-05-09T12:20:29.982Z,41.11
2019-05-09T12:22:59.425Z,42.22
2019-05-09T12:25:28.825Z,42.56
2019-05-09T12:27:58.671Z,39.86
2019-05-09T12:30:29.808Z,34.64
2019-05-09T12:32:59.286Z,33.87
2019-05-09T12:35:28.720Z,32.18
2019-05-09T12:37:58.175Z,33.52
2019-05-09T12:40:27.682Z,34.14
2019-05-09T12:42:57.118Z,33.55
2019-05-09T12:45:26.520Z,35.15
2019-05-09T12:48:07.628Z,37.24
2019-05-09T12:50:29.441Z,38.32
2019-05-09T12:52:58.369Z,40.30
2019-05-09T12:55:27.862Z,39.87
2019-05-09T12:57:59.519Z,40.14
2019-05-09T13:00:28.532Z,40.64
2019-05-09T13:02:59.475Z,41.11
2019-05-09T13:05:29.106Z,42.01
2019-05-09T13:07:58.632Z,41.41
2019-05-09T13:10:28.419Z,43.25
2019-05-09T13:12:58.866Z,42.96
2019-05-09T13:15:31.118Z,42.30
2019-05-09T13:18:01.113Z,43.75
2019-05-09T13:20:30.508Z,42.44
2019-05-09T13:22:59.969Z,43.19
2019-05-09T13:25:30.268Z,43.72
2019-05-09T13:27:59.945Z,43.62
2019-05-09T13:30:29.347Z,44.06
2019-05-09T13:32:58.758Z,44.06
2019-05-09T13:35:29.130Z,44.19
2019-05-09T13:37:59.683Z,41.33
2019-05-09T13:40:29.422Z,39.62
2019-05-09T13:43:00.666Z,39.72
2019-05-09T13:45:30.057Z,41.76
2019-05-09T13:47:59.548Z,40.95
2019-05-09T13:50:28.980Z,42.80
2019-05-09T13:52:58.530Z,43.80
2019-05-09T13:55:27.956Z,45.63
2019-05-09T13:57:59.276Z,45.02
2019-05-09T14:00:28.809Z,44.94
2019-05-09T14:02:58.544Z,46.26
2019-05-09T14:05:29.102Z,45.84
2019-05-09T14:08:03.280Z,44.67
2019-05-09T14:10:31.659Z,44.67
2019-05-09T14:13:09.823Z,45.24
2019-05-09T14:15:32.346Z,45.36
2019-05-09T14:18:01.764Z,44.77
2019-05-09T14:20:31.157Z,44.77
2019-05-09T14:23:00.580Z,44.22
2019-05-09T14:25:30.056Z,41.08
2019-05-09T14:27:59.873Z,37.37
2019-05-09T14:30:29.302Z,35.27
2019-05-09T14:33:00.309Z,33.72
2019-05-09T14:35:30.058Z,32.81
2019-05-09T14:37:59.484Z,32.83
2019-05-09T14:40:28.918Z,36.00
2019-05-09T14:43:00.503Z,35.13
2019-05-09T14:45:29.932Z,38.11
2019-05-09T14:47:59.419Z,39.18
2019-05-09T14:50:29.414Z,41.16
2019-05-09T14:52:58.845Z,43.00
2019-05-09T14:55:28.697Z,43.12
2019-05-09T14:57:58.182Z,44.03
2019-05-09T15:00:28.815Z,44.92
2019-05-09T15:02:59.302Z,44.00
2019-05-09T15:05:28.771Z,42.17
2019-05-09T15:08:03.052Z,42.18
2019-05-09T15:10:32.734Z,42.58
2019-05-09T15:13:02.176Z,43.04
2019-05-09T15:15:32.765Z,43.50
2019-05-09T15:18:02.486Z,42.52
2019-05-09T15:20:31.905Z,42.97
2019-05-09T15:23:01.341Z,46.01
2019-05-09T15:25:30.747Z,45.12
2019-05-09T15:28:00.348Z,51.45
2019-05-09T15:30:29.977Z,53.00
2019-05-09T15:32:59.760Z,51.53
2019-05-09T15:35:29.171Z,52.27
2019-05-09T15:37:59.221Z,53.39
2019-05-09T15:40:28.728Z,51.06
2019-05-09T15:42:58.975Z,48.19
2019-05-09T15:45:30.092Z,45.09
2019-05-09T15:47:59.520Z,43.68
2019-05-09T15:50:28.921Z,43.77
2019-05-09T15:52:58.518Z,45.01
2019-05-09T15:55:28.461Z,45.84
2019-05-09T15:57:57.960Z,45.36
2019-05-09T16:00:28.397Z,46.73
2019-05-09T16:02:59.077Z,47.51
2019-05-09T16:05:33.177Z,47.99
2019-05-09T16:08:02.604Z,48.05
2019-05-09T16:10:32.043Z,48.01
2019-05-09T16:13:01.470Z,49.18
2019-05-09T16:15:30.974Z,49.18
2019-05-09T16:18:00.787Z,49.71
2019-05-09T16:20:37.410Z,47.35
2019-05-09T16:23:01.561Z,46.36
2019-05-09T16:25:31.189Z,45.82
2019-05-09T16:28:00.823Z,45.99
2019-05-09T16:30:30.314Z,45.57
2019-05-09T16:32:59.883Z,45.53
2019-05-09T16:35:29.288Z,45.69
2019-05-09T16:38:06.351Z,46.50
2019-05-09T16:40:30.097Z,46.50
2019-05-09T16:42:59.522Z,47.08
2019-05-09T16:45:28.928Z,55.17
2019-05-09T16:47:58.422Z,56.87
2019-05-09T16:50:27.983Z,57.58
2019-05-09T16:52:58.457Z,56.87
2019-05-09T16:55:33.745Z,58.58
2019-05-09T16:58:03.198Z,58.29
2019-05-09T17:00:38.061Z,55.93
2019-05-09T17:03:08.128Z,54.68
2019-05-09T17:05:37.991Z,50.82
2019-05-09T17:08:08.178Z,50.17
2019-05-09T17:10:37.850Z,49.89
2019-05-09T17:13:07.932Z,50.31
2019-05-09T17:15:38.924Z,50.68
2019-05-09T17:18:10.020Z,50.84
2019-05-09T17:20:44.224Z,51.38
2019-05-09T17:23:15.453Z,52.96
2019-05-09T17:25:48.258Z,53.69
2019-05-09T17:28:18.013Z,55.91
2019-05-09T17:30:49.275Z,55.91
2019-05-09T17:33:19.052Z,56.77
2019-05-09T17:35:48.616Z,58.36
2019-05-09T17:38:18.317Z,60.13
2019-05-09T17:40:48.618Z,60.59
2019-05-09T17:43:23.397Z,62.45
2019-05-09T17:45:52.911Z,61.44
2019-05-09T17:48:22.345Z,64.91
2019-05-09T17:50:52.055Z,66.06
2019-05-09T17:53:21.628Z,69.71
2019-05-09T17:55:51.105Z,71.22
2019-05-09T17:58:29.865Z,71.34
2019-05-09T18:00:52.177Z,70.95
2019-05-09T18:03:21.629Z,72.12
2019-05-09T18:05:51.164Z,73.46
2019-05-09T18:08:20.641Z,76.69
2019-05-09T18:10:50.327Z,79.30
2019-05-09T18:13:23.883Z,80.69
2019-05-09T18:15:51.404Z,81.60
2019-05-09T18:18:20.851Z,82.83
2019-05-09T18:20:50.690Z,83.02
2019-05-09T18:23:21.880Z,83.03
2019-05-09T18:25:51.306Z,81.40
2019-05-09T18:28:21.029Z,80.42
2019-05-09T18:30:50.505Z,78.10
2019-05-09T18:33:21.666Z,77.32
2019-05-09T18:35:51.074Z,78.69
2019-05-09T18:38:23.571Z,78.34
2019-05-09T18:40:53.076Z,78.98
2019-05-09T18:43:22.532Z,78.23
2019-05-09T18:45:51.943Z,79.17
2019-05-09T18:48:21.445Z,79.60
2019-05-09T18:50:50.978Z,79.12
2019-05-09T18:53:21.228Z,79.85
2019-05-09T18:55:50.643Z,80.94
2019-05-09T18:58:20.183Z,78.10
2019-05-09T19:00:50.079Z,79.91
2019-05-09T19:03:19.600Z,80.30
2019-05-09T19:05:49.054Z,79.29
2019-05-09T19:08:18.529Z,79.81
2019-05-09T19:10:51.970Z,77.07
2019-05-09T19:13:20.713Z,77.88
2019-05-09T19:15:58.317Z,76.60
2019-05-09T19:18:30.713Z,78.01
2019-05-09T19:21:01.772Z,79.67
2019-05-09T19:23:31.504Z,80.46
2019-05-09T19:26:02.555Z,81.68
2019-05-09T19:28:32.085Z,81.64
2019-05-09T19:31:01.569Z,82.26
2019-05-09T19:33:31.066Z,83.07
2019-05-09T19:36:00.648Z,82.08
2019-05-09T19:38:30.095Z,82.56
2019-05-09T19:40:59.511Z,81.84
2019-05-09T19:43:29.034Z,82.99
2019-05-09T19:45:58.443Z,83.79
2019-05-09T19:48:28.207Z,83.61
2019-05-09T19:50:57.840Z,84.18
2019-05-09T19:53:27.278Z,84.40
2019-05-09T19:55:56.695Z,84.56
2019-05-09T19:58:26.251Z,85.01
2019-05-09T20:00:55.707Z,85.15
2019-05-09T20:03:24.296Z,85.00
2019-05-09T20:05:52.936Z,85.20
2019-05-09T20:08:21.736Z,85.92
2019-05-09T20:11:10.444Z,85.88
2019-05-09T20:14:00.166Z,87.00
2019-05-09T20:16:38.149Z,87.46
2019-05-09T20:19:07.114Z,87.12
2019-05-09T20:21:37.136Z,87.35
2019-05-09T20:24:09.483Z,87.51
2019-05-09T20:26:40.217Z,87.87
2019-05-09T20:29:09.790Z,88.19
2019-05-09T20:31:39.234Z,88.30
2019-05-09T20:34:10.809Z,88.63
2019-05-09T20:36:42.373Z,88.28
2019-05-09T20:39:14.524Z,88.48
2019-05-09T20:41:46.320Z,88.62
2019-05-09T20:44:18.173Z,88.74
2019-05-09T20:46:49.091Z,88.75
2019-05-09T20:49:18.790Z,88.84
2019-05-09T20:51:48.616Z,88.58
2019-05-09T20:54:21.773Z,88.49
2019-05-09T20:56:53.628Z,88.77
2019-05-09T20:59:25.034Z,88.63
2019-05-09T21:01:54.816Z,88.69
2019-05-09T21:04:24.463Z,89.06
2019-05-09T21:06:54.245Z,88.74
2019-05-09T21:09:24.208Z,88.80
2019-05-09T21:11:53.977Z,89.23
2019-05-09T21:14:23.845Z,89.07
2019-05-09T21:16:53.463Z,89.33
2019-05-09T21:19:23.071Z,89.29
2019-05-09T21:21:52.989Z,89.52
2019-05-09T21:24:22.769Z,89.50
2019-05-09T21:26:52.388Z,89.81
2019-05-09T21:29:22.028Z,89.86
2019-05-09T21:31:51.611Z,89.77
2019-05-09T21:34:21.335Z,89.46
2019-05-09T21:36:50.784Z,89.53
2019-05-09T21:39:21.832Z,89.56
2019-05-09T21:41:51.302Z,89.90
2019-05-09T21:44:20.709Z,89.79
2019-05-09T21:46:53.197Z,89.60
2019-05-09T21:49:22.598Z,89.43
2019-05-09T21:51:52.596Z,89.80
2019-05-09T21:54:22.019Z,90.49
2019-05-09T21:56:51.447Z,90.19
2019-05-09T21:59:20.851Z,89.92
2019-05-09T22:01:50.444Z,90.85
2019-05-09T22:04:19.852Z,90.77
2019-05-09T22:06:51.530Z,90.30
2019-05-09T22:09:21.154Z,91.20
2019-05-09T22:11:50.777Z,90.64
2019-05-09T22:14:20.622Z,91.11
2019-05-09T22:16:50.887Z,90.26
2019-05-09T22:19:20.416Z,90.13
2019-05-09T22:21:49.889Z,90.32
2019-05-09T22:24:19.405Z,90.54
2019-05-09T22:26:48.810Z,90.32
2019-05-09T22:29:18.338Z,90.49
2019-05-09T22:31:48.717Z,90.40
2019-05-09T22:34:18.156Z,90.85
2019-05-09T22:36:47.663Z,90.87
2019-05-09T22:39:17.092Z,91.13
2019-05-09T22:41:46.600Z,91.42
2019-05-09T22:44:16.166Z,91.26
2019-05-09T22:46:45.606Z,90.98
2019-05-09T22:49:15.055Z,90.90
2019-05-09T22:51:44.455Z,90.94
2019-05-09T22:54:13.860Z,91.02
2019-05-09T22:56:43.371Z,90.92
2019-05-09T22:59:12.788Z,90.87
2019-05-09T23:01:43.375Z,91.08
2019-05-09T23:04:12.799Z,91.14
2019-05-09T23:06:42.202Z,91.38
2019-05-09T23:09:12.810Z,91.43
2019-05-09T23:11:42.246Z,91.36
2019-05-09T23:14:11.649Z,91.32
2019-05-09T23:16:41.620Z,91.44
2019-05-09T23:19:11.252Z,91.34
2019-05-09T23:21:40.646Z,91.22
2019-05-09T23:24:27.393Z,91.39
2019-05-09T23:26:45.774Z,91.45
2019-05-09T23:29:15.246Z,91.40
2019-05-09T23:31:55.050Z,91.28
2019-05-09T23:34:24.689Z,91.14
2019-05-09T23:36:54.289Z,91.05
2019-05-09T23:39:34.588Z,91.08
2019-05-09T23:42:04.285Z,90.93
2019-05-09T23:44:33.659Z,90.63
2019-05-09T23:47:03.117Z,90.43
2019-05-09T23:49:32.610Z,90.47
2019-05-09T23:52:02.011Z,90.35
2019-05-09T23:54:49.133Z,90.45
2019-05-09T23:57:36.712Z,90.44
